Weather observations for the past three days for
Hillsboro, Hillsboro Municipal Airport
Imperial (Metric)
Date Time (cdt) Wind (mph) Vis. (mi.) Weather Sky Cond. Temperature (ºF) Relative Humidity Wind Chill (°F) Heat Index (°F) Pressure Precipitation (in)
Air Dwpt 6 hour altimeter (in) sea level (mb) 1 hr 3 hr 6 hr
Max. Min.
31 10:35 SW 5 10.00 Fair CLR 87.3 70.7 58% 93 30.05 0.0
31 10:15 SW 8 10.00 Fair CLR 86.2 70.7 60% 91 30.05 0.0
31 09:55 SW 10 10.00 Fair CLR 84.9 72 65% 91 30.05 0.0
31 09:35 SW 8 10.00 Fair CLR 82.9 72.3 70% 88 30.04 0.0
31 09:15 SW 9 10.00 Fair CLR 81.7 72.1 73% 86 30.04 0.0
31 08:55 SW 8 10.00 Fair CLR 80.8 72.1 75% 85 30.04 0.0
31 08:35 S 6 10.00 Fair CLR 79.3 71.6 77% 83 30.03 0.0
31 08:15 S 3 10.00 Fair CLR 78.1 71.2 80% 80 30.02 0.0
31 07:55 S 5 10.00 Fair CLR 77.4 70.5 80% 79 30.02 0.0
31 07:35 S 6 10.00 Fair CLR 76.8 69.6 79% 78 30.02 0.0
31 07:15 SE 6 10.00 Fair CLR 76.6 69.1 78% 78 30.01 0.0
31 06:55 S 5 10.00 Fair CLR 77.2 68.9 86.5 77.2 76% 79 30 0.0
31 06:35 S 5 10.00 Fair CLR 77.4 68.9 75% 79 29.99 0.0
31 06:20 S 5 10.00 Fair CLR 77.9 68.7 73% 80 29.99 0.0
31 05:55 S 5 10.00 Fair CLR 78.8 68.5 71% 81 29.99 0.0
31 05:35 S 6 10.00 Fair CLR 79.2 68.2 69% 82 29.99 0.0
31 05:15 S 5 10.00 Fair CLR 79.7 68.4 68% 82 29.99 0.0
31 04:55 S 6 10.00 Fair CLR 80.4 68.4 67% 83 29.98 0.0
31 04:35 S 8 10.00 Fair CLR 80.8 68.4 66% 84 29.98 0.0
31 04:15 S 8 10.00 Fair CLR 80.8 68.2 66% 84 29.98 0.0
31 03:55 S 8 10.00 Fair CLR 81 68 65% 84 29.98 0.0
31 03:35 S 7 10.00 Fair CLR 81.5 67.6 63% 84 29.98 0.0
31 03:15 S 6 10.00 Fair CLR 81.9 66.7 60% 84 29.98 0.0
31 02:55 S 6 10.00 Fair CLR 82.4 65.8 57% 85 29.98 0.0
31 02:35 S 7 10.00 Fair CLR 82.6 66.2 58% 85 29.98 0.0
31 02:15 S 7 10.00 Partly Cloudy SCT095 82.9 65.8 56% 85 29.98 0.0
31 02:00 S 7 10.00 Fair CLR 83.7 65.5 54% 86 29.98 0.0
31 01:35 S 9 10.00 Fair CLR 85.1 65.3 52% 87 29.98 0.0
31 01:15 S 9 10.00 Fair CLR 86 64.4 49% 87 29.98 0.0
31 00:55 S 12 10.00 Fair CLR 86.7 63.7 97.7 86.4 46% 88 29.98 0.0
31 00:35 S 12 10.00 Fair CLR 87.1 62.6 44% 88 29.98 0.0
31 00:15 S 10 10.00 Fair CLR 86.9 62.2 44% 87 29.97 0.0
30 23:55 S 8 10.00 Fair CLR 86.9 61 42% 87 29.97 0.0
30 23:35 SE 7 10.00 Fair CLR 86.4 60.3 41% 86 29.97 0.0
30 23:15 SE 7 10.00 Fair CLR 86.5 59.9 41% 86 29.96 0.0
30 22:55 SE 6 10.00 Fair CLR 86.5 59.9 41% 86 29.96 0.0
30 22:35 SE 5 10.00 Fair CLR 86.9 59.9 40% 87 29.95 0.0
30 22:15 SE 6 10.00 Fair CLR 87.6 59.7 39% 87 29.95 0.0
30 21:55 SE 5 10.00 Fair CLR 88 59.7 39% 88 29.94 0.0
30 21:35 SE 5 10.00 Fair CLR 88.7 59.5 37% 88 29.94 0.0
30 21:15 SE 5 10.00 Fair CLR 89.2 59.4 37% 89 29.93 0.0
30 20:55 SE 5 10.00 Fair CLR 90.5 59.5 35% 90 29.92 0.0
30 20:35 SE 5 10.00 Fair CLR 91.9 59.5 34% 91 29.92 0.0
30 20:15 S 6 10.00 Fair CLR 94.3 59 31% 94 29.91 0.0
30 19:55 S 9 10.00 Fair CLR 95.4 59.2 30% 95 29.91 0.0
30 19:35 S 10 10.00 Fair CLR 96.4 59.7 30% 96 29.91 0.0
30 19:15 S 12 10.00 Fair CLR 97 59.4 29% 97 29.91 0.0
30 18:55 S 9 10.00 Partly Cloudy SCT085 97.7 59.7 100.9 95.7 28% 98 29.91 0.0
30 18:35 S 13 10.00 Partly Cloudy SCT085 98.2 59.9 28% 98 29.91 0.0
30 18:15 S 7 10.00 Partly Cloudy SCT085 98.8 59.4 27% 99 29.91 0.0
30 17:55 S 13 10.00 Fair CLR 100 59.7 26% 100 29.92 0.0
30 17:35 SE 15 G 18 10.00 Fair CLR 99.9 60.1 27% 100 29.92 0.0
30 17:15 S 10 10.00 Partly Cloudy SCT090 98.4 59.7 28% 99 29.92 0.0
30 16:55 SE 9 G 18 10.00 Partly Cloudy SCT090 100.6 60.6 27% 101 29.92 0.0
30 16:35 SE 9 10.00 Mostly Cloudy BKN090 100.8 61 27% 102 29.93 0.0
30 16:15 S 8 10.00 Fair CLR 99.3 60.4 28% 100 29.94 0.0
30 15:55 SE 15 G 18 10.00 Fair CLR 99.7 58.3 25% 99 29.95 0.0
30 15:35 S 13 10.00 Partly Cloudy SCT085 99 60.6 28% 100 29.95 0.0
30 14:35 SE 14 G 21 10.00 Fair CLR 99.3 60.8 28% 100 29.98 0.0
30 14:15 S 7 G 18 10.00 Fair CLR 98.4 60.6 29% 99 29.99 0.0
30 13:55 SW 9 10.00 Fair CLR 97.9 61 30% 99 29.99 0.0
30 13:40 S 12 10.00 Fair CLR 97.9 62.4 31% 99 30 0.0
30 13:15 S 10 G 17 10.00 Fair CLR 96.8 62.1 32% 98 30.01 0.0
30 12:55 S 9 G 16 10.00 Fair CLR 95 64.2 95.7 76.3 36% 97 30.02 0.0
30 12:35 S 10 10.00 Fair CLR 95 62.4 34% 96 30.03 0.0
30 12:15 S 13 G 16 10.00 Fair CLR 94.8 64.2 36% 97 30.04 0.0
30 11:55 S 10 10.00 Fair CLR 93.4 65.5 40% 96 30.04 0.0
30 11:35 S 10 10.00 Fair CLR 92.1 67.3 44% 96 30.05 0.0
30 11:15 S 8 10.00 Fair CLR 91 66.4 44% 94 30.05 0.0
30 10:55 SW 9 10.00 Fair CLR 89.8 67.6 48% 93 30.05 0.0
30 10:35 S 7 10.00 Fair CLR 88.5 68.4 51% 92 30.04 0.0
30 10:15 SW 6 10.00 Fair CLR 86.9 68.9 55% 91 30.04 0.0
30 09:55 S 8 10.00 Fair CLR 85.5 69.1 58% 89 30.04 0.0
30 09:35 S 7 10.00 Fair CLR 84.9 69.8 61% 89 30.04 0.0
30 09:15 S 9 10.00 Fair CLR 83.3 70.2 65% 88 30.04 0.0
30 08:55 S 8 10.00 Fair CLR 82.2 70.5 68% 86 30.04 0.0
30 08:35 S 8 10.00 Fair CLR 81 70.7 71% 85 30.04 0.0
30 08:15 S 6 10.00 Fair CLR 79.7 70.2 73% 83 30.03 0.0
30 08:00 S 5 10.00 Fair CLR 78.8 69.8 74% 81 30.03 0.0
30 07:35 S 3 10.00 Fair CLR 76.5 67.8 75% 78 30.01 0.0
30 07:20 Calm 10.00 Fair CLR 76.6 68.9 77% 78 30.01 0.0
30 06:55 S 3 10.00 Fair CLR 77 68.9 85.8 77 76% 79 30 0.0
30 06:35 S 3 10.00 Fair CLR 77.7 68 72% 80 30 0.0
30 06:15 S 3 10.00 Fair CLR 78.4 68.9 73% 81 29.99 0.0
30 05:55 S 3 10.00 Fair CLR 78.1 67.8 71% 80 29.99 0.0
30 05:35 Calm 10.00 Fair CLR 78.3 69.6 75% 81 29.99 0.0
30 05:15 Calm 10.00 Fair CLR 79 69.3 72% 82 29.99 0.0
30 04:55 SW 3 10.00 Fair CLR 80.1 70 71% 83 29.99 0.0
30 04:35 S 5 10.00 Fair CLR 80.6 69.8 70% 84 29.99 0.0
30 04:15 S 6 10.00 Fair CLR 80.8 69.1 68% 84 29.99 0.0
30 03:55 S 5 10.00 Fair CLR 80.6 68.2 66% 83 29.99 0.0
30 03:35 S 5 10.00 Fair CLR 80.6 67.5 64% 83 29.98 0.0
30 03:15 S 5 10.00 Fair CLR 81.5 66.9 61% 84 29.99 0.0
30 02:55 S 5 10.00 Fair CLR 81.5 66.2 60% 84 29.99 0.0
30 02:35 S 3 10.00 Fair CLR 82.4 66.2 58% 85 29.99 0.0
30 02:15 S 6 10.00 Fair CLR 83.3 65.5 55% 85 29.99 0.0
30 01:55 S 6 10.00 Fair CLR 83.5 65.3 54% 85 29.99 0.0
30 01:35 S 6 10.00 Fair CLR 83.7 64.8 53% 85 29.99 0.0
30 01:15 S 5 10.00 Fair CLR 84.7 64.9 52% 86 29.99 0.0
30 00:55 S 5 10.00 Fair CLR 86 64.8 99.1 86 49% 88 29.98 0.0
30 00:35 S 7 10.00 Fair CLR 87.3 64.6 47% 89 29.98 0.0
30 00:20 S 8 10.00 Fair CLR 88 64.8 46% 90 29.98 0.0
29 23:55 S 9 10.00 Fair CLR 88.2 64.6 46% 90 29.99 0.0
29 23:35 S 7 10.00 Fair CLR 88.3 64.2 45% 90 29.98 0.0
29 23:15 S 8 10.00 Fair CLR 89.1 64 43% 90 29.98 0.0
29 22:55 S 6 10.00 Fair CLR 89.2 63.7 43% 90 29.98 0.0
29 22:35 S 9 10.00 Fair CLR 89.6 63.5 42% 91 29.98 0.0
29 22:15 SE 8 10.00 Fair CLR 90 62.8 40% 91 29.97 0.0
29 21:55 SE 6 10.00 Fair CLR 89.6 61.7 39% 90 29.97 0.0
29 21:35 SE 6 10.00 Partly Cloudy SCT090 91.2 61.3 37% 91 29.96 0.0
29 21:15 SE 9 10.00 Partly Cloudy SCT090 92.3 60.8 35% 92 29.96 0.0
29 20:55 SE 7 10.00 Fair CLR 92.3 60.3 34% 92 29.95 0.0
29 20:35 SE 7 10.00 Fair CLR 93.6 60.3 33% 93 29.95 0.0
29 20:15 SE 6 10.00 Partly Cloudy SCT090 95 60.3 31% 95 29.94 0.0
29 19:55 S 8 10.00 Partly Cloudy SCT100 97 59.9 29% 97 29.94 0.0
29 19:35 S 9 10.00 Partly Cloudy SCT100 97.9 60.6 29% 98 29.94 0.0
29 19:15 SE 8 10.00 Fair CLR 98.6 59.9 28% 99 29.94 0.0
29 19:00 S 8 10.00 Fair CLR 99 59.9 27% 99 29.94 0.0
29 18:35 S 9 10.00 Fair CLR 99.5 58.8 26% 99 29.94 0.0
29 18:20 S 7 10.00 Partly Cloudy SCT090 98.6 59.9 28% 99 29.94 0.0
29 17:55 SW 5 10.00 Partly Cloudy SCT100 99.9 61 28% 101 29.94 0.0
29 17:40 SE 8 10.00 Partly Cloudy SCT100 98.6 60.8 29% 99 29.94 0.0
29 17:15 S 9 10.00 Fair CLR 100 61.2 28% 101 29.95 0.0
29 17:00 S 7 10.00 Partly Cloudy SCT085 100.6 61 27% 102 29.95 0.0
29 16:35 S 7 10.00 Partly Cloudy SCT085 100.2 61.2 28% 101 29.96 0.0
29 16:15 S 5 G 17 10.00 Partly Cloudy SCT090 100.9 60.8 27% 102 29.97 0.0
29 15:55 S 10 G 17 10.00 Partly Cloudy SCT080 101.5 61.9 27% 103 29.98 0.0
29 15:35 S 8 G 17 10.00 Partly Cloudy SCT080 100.8 61.7 28% 102 29.99 0.0
29 15:15 S 13 G 17 10.00 Fair CLR 99.5 59.5 27% 100 29.99 0.0
29 14:55 S 12 G 18 10.00 Fair CLR 100.2 60.3 27% 101 30.01 0.0
29 14:15 S 8 G 16 10.00 Fair CLR 99.1 63.9 31% 102 30.03 0.0
29 13:55 SE 8 10.00 Fair CLR 97.9 63.3 32% 100 30.03 0.0
29 13:35 S 8 10.00 Fair CLR 98.4 63.1 31% 100 30.04 0.0
29 13:15 SW 3 10.00 Fair CLR 97.2 64.6 34% 100 30.05 0.0
29 12:55 SW 8 10.00 Fair CLR 96.1 64.4 96.1 74.8 35% 98 30.06 0.0
29 12:35 SW 6 10.00 Fair CLR 95.2 66.2 39% 99 30.06 0.0
29 12:15 SE 6 10.00 Fair CLR 93.6 66.4 41% 97 30.07 0.0
29 12:00 SW 5 10.00 Fair CLR 93.7 66.9 41% 97 30.07 0.0
29 11:35 S 5 10.00 Fair CLR 92.1 68 45% 96 30.07 0.0
29 11:20 SW 5 10.00 Fair CLR 91 68.7 48% 96 30.07 0.0
29 10:55 SW 5 10.00 Fair CLR 89.2 69.1 51% 94 30.07 0.0
29 10:35 SW 6 10.00 Fair CLR 87.4 69.3 55% 92 30.08 0.0
29 10:15 SW 6 10.00 Fair CLR 85.6 69.1 58% 90 30.08 0.0
29 09:55 SW 5 10.00 Fair CLR 84.4 69.1 60% 88 30.08 0.0
29 09:35 S 5 10.00 Fair CLR 82.9 69.3 63% 87 30.08 0.0
29 09:15 S 6 10.00 Fair CLR 81.7 69.1 66% 85 30.08 0.0
29 08:55 S 6 10.00 Fair CLR 80.6 69.1 68% 84 30.08 0.0
29 08:35 S 5 10.00 Fair CLR 79 68.7 71% 81 30.08 0.0
29 08:15 S 3 10.00 Fair CLR 77.4 68.2 73% 79 30.07 0.0
29 07:55 Calm 10.00 Fair CLR 76.5 67.8 75% 78 30.06 0.0
29 07:35 Calm 10.00 Fair CLR 75.7 67.3 75% 77 30.06 0.0
29 07:15 Calm 10.00 Fair CLR 75.7 67.3 75% 77 30.05 0.0
29 06:55 S 5 10.00 Fair CLR 74.7 65.5 81.5 74.7 73% 30.05 0.0
29 06:35 Calm 10.00 Fair CLR 74.8 65.5 73% 30.05 0.0
29 06:15 Calm 10.00 Fair CLR 75.2 66.2 74% 77 30.05 0.0
29 05:55 Calm 10.00 Fair CLR 75.7 66.6 73% 77 30.05 0.0
29 05:40 Calm 10.00 Fair CLR 75.6 66.2 73% 77 30.05 0.0
29 05:15 Calm 10.00 Fair CLR 75.7 66.7 74% 77 30.04 0.0
29 05:00 Calm 10.00 Fair CLR 76.1 66.6 72% 78 30.04 0.0
29 04:35 Calm 10.00 Fair CLR 76.1 67.3 74% 78 30.04 0.0
29 04:15 S 5 10.00 Fair CLR 76.5 67.6 74% 78 30.04 0.0
29 03:55 S 6 10.00 Fair CLR 76.6 67.8 74% 78 30.04 0.0
29 03:35 SE 7 10.00 Fair CLR 77 68 74% 79 30.04 0.0
29 03:15 SE 6 10.00 Fair CLR 77.5 68 73% 79 30.04 0.0
29 02:55 SE 7 10.00 Fair CLR 78.3 67.5 70% 80 30.04 0.0
29 02:35 SE 8 10.00 Fair CLR 79.2 67.3 67% 81 30.04 0.0
29 02:15 SE 9 10.00 Fair CLR 79.7 67.3 66% 82 30.04 0.0
29 01:55 SE 3 10.00 Fair CLR 79.7 65.8 63% 82 30.03 0.0
29 01:35 Calm 10.00 Fair CLR 80.6 66.4 62% 83 30.03 0.0
29 01:15 Calm 10.00 Partly Cloudy SCT110 81 65.8 60% 83 30.03 0.0
29 00:55 Calm 10.00 Mostly Cloudy BKN100 81.7 67.5 99.1 81.5 62% 84 30.03 0.0
29 00:35 Calm 10.00 Mostly Cloudy BKN110 81.5 66.9 61% 84 30.03 0.0
29 00:15 Calm 10.00 Mostly Cloudy BKN110 82 67.5 61% 85 30.04 0.0
28 23:55 S 3 10.00 Fair CLR 82.9 67.6 60% 86 30.03 0.0
28 23:35 S 5 10.00 Fair CLR 83.8 67.6 58% 87 30.03 0.0
28 23:15 SW 8 10.00 Fair CLR 84.7 67.1 56% 88 30.02 0.0
28 22:55 S 13 10.00 Fair CLR 86.5 66.6 51% 89 30.02 0.0
28 22:35 S 8 10.00 Fair CLR 87.8 66.2 49% 90 30.01 0.0
28 22:15 S 9 10.00 Fair CLR 88.9 66.6 48% 92 30 0.0
28 21:55 S 6 10.00 Fair CLR 89.1 65.7 46% 91 29.99 0.0
28 21:35 S 5 10.00 Fair CLR 89.6 65.3 45% 92 29.99 0.0
28 21:15 S 10 10.00 Fair CLR 91.4 63.5 40% 93 29.98 0.0
28 20:55 E 6 10.00 Fair CLR 91.6 59.9 35% 91 29.97 0.0
28 20:35 E 5 10.00 Fair CLR 92.7 60.3 34% 92 29.96 0.0
28 20:15 SE 5 10.00 Fair CLR 94.8 60.3 32% 95 29.96 0.0
28 19:55 SE 5 10.00 Fair CLR 96.4 61.2 31% 97 29.95 0.0
28 19:35 SE 5 10.00 Fair CLR 97.7 60.8 30% 98 29.95 0.0
28 19:15 SE 6 10.00 Partly Cloudy SCT110 98.6 60.8 29% 99 29.95 0.0
28 18:55 SE 7 10.00 Partly Cloudy SCT110 99.1 60.1 102.2 96.4 27% 100 29.95 0.0
28 18:40 SE 10 10.00 Partly Cloudy SCT110 100.2 60.8 27% 101 29.95 0.0
28 18:15 E 7 10.00 Fair CLR 100.4 60.1 26% 101 29.95 0.0
28 17:55 E 8 10.00 Fair CLR 100.8 60.3 26% 101 29.95 0.0
28 17:35 SE 8 10.00 Partly Cloudy SCT095 101.3 59.2 25% 102 29.94 0.0
28 17:20 NE 8 10.00 Partly Cloudy SCT095 101.7 59.2 25% 102 29.95 0.0
28 16:55 E 7 10.00 Fair CLR 100.9 58.5 25% 101 29.96 0.0
28 16:40 E 12 G 16 10.00 Fair CLR 101.5 58.6 24% 101 29.96 0.0
28 16:15 E 9 10.00 Fair CLR 101.1 58.8 25% 101 29.98 0.0
28 15:55 NE 5 10.00 Fair CLR 101.1 57.9 24% 101 29.99 0.0
28 15:35 E 8 10.00 Fair CLR 101.1 58.8 25% 101 30 0.0
28 15:15 E 5 G 17 10.00 Fair CLR 100.8 58.1 24% 100 30.01 0.0
28 14:55 E 5 10.00 Fair CLR 100.9 58.3 24% 101 30.02 0.0
28 14:35 E 12 G 16 10.00 Fair CLR 100.9 61.3 27% 102 30.02 0.0
28 14:15 SE 5 10.00 Fair CLR 99.5 65.1 33% 103 30.03 0.0
28 13:55 SE 3 10.00 Fair CLR 99.5 64.8 32% 103 30.04 0.0
28 13:35 E 9 10.00 Fair CLR 97.9 67.3 37% 103 30.05 0.0
28 13:15 E 12 G 16 10.00 Fair CLR 97.9 67.5 37% 103 30.05 0.0
28 12:55 E 9 10.00 Fair CLR 97.3 69.3 97.3 76.5 40% 104 30.06 0.0
28 12:35 E 8 10.00 Fair CLR 95.4 70.5 45% 102 30.07 0.0
28 12:20 E 7 10.00 Fair CLR 95.4 70.5 45% 102 30.07 0.0
28 11:55 E 6 G 9 10.00 Fair CLR 93.9 71.1 48% 101 30.08 0.0
28 11:40 SE 10 10.00 Fair CLR 93.9 71.8 49% 102 30.07 0.0
28 11:15 E 8 10.00 Fair CLR 92.1 72.3 52% 100 30.08 0.0
28 10:55 E 9 10.00 Fair CLR 91.6 71.8 52% 99 30.07 0.0
Date Time (cdt) Wind (mph) Vis. (mi.) Weather Sky Cond. Air Dwpt Max. Min. Relative Humidity Wind Chill (°F) Heat Index (°F) altimeter (in) sea level (mb) 1 hr 3 hr 6 hr
6 hour
Temperature (ºF) Pressure Precipitation (in)